Time;durP1;ratioP1;P1;durP2;ratioP2;P2;SDS_P1;SDS_P2;PMS_P1;PMS_P2;Temp;Humidity;BMP_temperature;BMP_pressure;BME280_temperature;BME280_humidity;BME280_pressure;Samples;Min_cycle;Max_cycle;Signal;HPM_P1;HPM_P2
2022/11/04 00:01:52;;;;;;;;;;;;;;;;;;6301026;22;20023;-50
2022/11/04 00:04:21;;;;;;;15.13;3.30;;;;;;;;;;6300730;22;19926;-51
2022/11/04 00:06:55;;;;;;;18.55;4.65;;;;;;;;;;6299186;22;20017;-52
2022/11/04 00:09:23;;;;;;;14.80;3.90;;;;;;;;;;6300687;22;20054;-50
2022/11/04 00:14:43;;;;;;;13.20;3.35;;;;;;;;;;6299504;22;20019;-60
2022/11/04 00:17:23;;;;;;;14.18;3.35;;;;;;;;;;6299411;22;20030;-60
2022/11/04 00:28:41;;;;;;;15.55;3.85;;;;;;;;;;6299867;22;20023;-60
2022/11/04 00:34:01;;;;;;;12.40;3.20;;;;;;;;;;6300652;22;20019;-60
2022/11/04 00:36:28;;;;;;;12.85;3.28;;;;;;;;;;6298689;22;20103;-60
2022/11/04 00:39:02;;;;;;;14.85;2.90;;;;;;;;;;6300537;22;20344;-64
2022/11/04 00:41:29;;;;;;;13.90;3.25;;;;;;;;;;6298765;22;20433;-64
2022/11/04 00:43:56;;;;;;;10.57;3.10;;;;;;;;;;6300028;22;20022;-64
2022/11/04 00:46:38;;;;;;;13.80;3.20;;;;;;;;;;6299067;22;20030;-64
2022/11/04 00:49:05;;;;;;;15.40;3.67;;;;;;;;;;6300511;22;20023;-64
2022/11/04 00:51:39;;;;;;;12.93;3.10;;;;;;;;;;6300522;22;20299;-63
2022/11/04 00:54:06;;;;;;;20.75;4.03;;;;;;;;;;6301054;22;20023;-65
2022/11/04 00:56:37;;;;;;;14.75;2.90;;;;;;;;;;6300837;22;20029;-54
2022/11/04 00:59:10;;;;;;;19.00;3.75;;;;;;;;;;6303608;22;20094;-52
2022/11/04 01:01:40;;;;;;;11.25;3.13;;;;;;;;;;6302202;22;20159;-54
2022/11/04 01:04:08;;;;;;;11.93;3.33;;;;;;;;;;6301387;22;20015;-54
2022/11/04 01:06:42;;;;;;;13.38;3.88;;;;;;;;;;6302001;22;20034;-52
2022/11/04 01:09:11;;;;;;;10.00;3.30;;;;;;;;;;6301082;22;20526;-50
2022/11/04 01:11:45;;;;;;;9.50;3.15;;;;;;;;;;6302745;22;20015;-64
2022/11/04 01:14:12;;;;;;;15.43;4.00;;;;;;;;;;6301868;22;20023;-63
2022/11/04 01:16:40;;;;;;;18.35;3.92;;;;;;;;;;6301850;22;20314;-60
2022/11/04 01:19:13;;;;;;;12.93;3.22;;;;;;;;;;6301869;22;20464;-60
2022/11/04 01:21:40;;;;;;;20.42;3.83;;;;;;;;;;6299797;22;20110;-60
2022/11/04 01:24:07;;;;;;;12.82;3.70;;;;;;;;;;6303080;22;20015;-60
2022/11/04 01:26:41;;;;;;;14.80;3.30;;;;;;;;;;6302558;22;20062;-60
2022/11/04 01:29:08;;;;;;;18.30;3.83;;;;;;;;;;6302427;22;20015;-60
2022/11/04 01:31:35;;;;;;;11.88;3.75;;;;;;;;;;6301053;22;20479;-47
2022/11/04 01:34:09;;;;;;;13.70;3.85;;;;;;;;;;6302228;22;20348;-48
2022/11/04 01:36:36;;;;;;;13.88;4.38;;;;;;;;;;6302302;22;20021;-49
2022/11/04 01:39:11;;;;;;;11.27;3.53;;;;;;;;;;6303261;22;20119;-50
2022/11/04 01:41:39;;;;;;;15.80;4.07;;;;;;;;;;6301735;22;20750;-52
2022/11/04 01:44:25;;;;;;;18.48;4.38;;;;;;;;;;6302117;22;20113;-49
2022/11/04 01:47:05;;;;;;;13.73;3.60;;;;;;;;;;6299862;22;20494;-48
2022/11/04 01:49:34;;;;;;;14.75;3.95;;;;;;;;;;6301229;22;20146;-48
2022/11/04 01:52:12;;;;;;;11.88;3.90;;;;;;;;;;6302952;22;20015;-59
2022/11/04 01:54:40;;;;;;;22.75;4.22;;;;;;;;;;6301171;22;20027;-59
2022/11/04 01:57:15;;;;;;;17.15;4.93;;;;;;;;;;6302653;22;20019;-59
2022/11/04 01:59:42;;;;;;;17.75;3.75;;;;;;;;;;6300957;22;20046;-59
2022/11/04 02:02:16;;;;;;;13.23;3.95;;;;;;;;;;6302668;22;20015;-59
2022/11/04 02:04:43;;;;;;;15.73;3.70;;;;;;;;;;6302575;22;20023;-59
2022/11/04 02:07:17;;;;;;;17.52;4.10;;;;;;;;;;6302315;22;20023;-59
2022/11/04 02:09:44;;;;;;;21.83;4.65;;;;;;;;;;6299339;22;20080;-48
2022/11/04 02:15:04;;;;;;;15.57;4.20;;;;;;;;;;6300611;22;20019;-64
2022/11/04 02:17:31;;;;;;;10.38;3.40;;;;;;;;;;6301267;22;20026;-64
2022/11/04 02:20:05;;;;;;;11.63;3.30;;;;;;;;;;6299963;22;20019;-64
2022/11/04 02:22:51;;;;;;;13.75;4.30;;;;;;;;;;6300605;22;20023;-64
2022/11/04 02:25:33;;;;;;;9.55;3.47;;;;;;;;;;6298905;22;20030;-65
2022/11/04 02:28:00;;;;;;;17.38;4.38;;;;;;;;;;6300607;22;20468;-47
2022/11/04 02:30:35;;;;;;;10.93;3.72;;;;;;;;;;6301002;22;20025;-48
2022/11/04 02:33:05;;;;;;;15.15;4.18;;;;;;;;;;6300416;22;20468;-51
2022/11/04 02:35:39;;;;;;;14.48;4.43;;;;;;;;;;6301855;22;20020;-53
2022/11/04 02:38:25;;;;;;;12.13;3.50;;;;;;;;;;6300970;22;20027;-50
2022/11/04 02:41:10;;;;;;;15.52;4.90;;;;;;;;;;6300924;22;20033;-52
2022/11/04 02:44:02;;;;;;;16.80;3.90;;;;;;;;;;6301553;22;20029;-54
2022/11/04 02:46:35;;;;;;;13.27;4.63;;;;;;;;;;6301167;22;20102;-51
2022/11/04 02:49:13;;;;;;;18.90;4.60;;;;;;;;;;6301336;22;20094;-64
2022/11/04 02:51:51;;;;;;;12.32;4.80;;;;;;;;;;6301491;22;20019;-59
2022/11/04 02:54:40;;;;;;;15.60;4.45;;;;;;;;;;6301480;22;20030;-59
2022/11/04 02:57:08;;;;;;;16.58;5.10;;;;;;;;;;6300949;22;20019;-59
2022/11/04 03:00:20;;;;;;;13.27;4.75;;;;;;;;;;6301103;22;20023;-59
2022/11/04 03:02:47;;;;;;;17.50;5.47;;;;;;;;;;6146192;23;20104;-60
2022/11/04 03:05:32;;;;;;;21.67;5.82;;;;;;;;;;6281576;22;20783;-60
2022/11/04 03:08:02;;;;;;;18.73;6.35;;;;;;;;;;6301701;22;20026;-59
2022/11/04 03:10:41;;;;;;;11.75;4.80;;;;;;;;;;6300119;22;20057;-60
2022/11/04 03:13:13;;;;;;;14.75;6.28;;;;;;;;;;6300496;22;20020;-60
2022/11/04 03:16:13;;;;;;;18.80;6.30;;;;;;;;;;6302166;22;20019;-60
2022/11/04 03:18:44;;;;;;;26.15;6.40;;;;;;;;;;6294151;22;20107;-60
2022/11/04 03:21:18;;;;;;;18.55;6.80;;;;;;;;;;6300526;22;20025;-60
2022/11/04 03:23:46;;;;;;;23.10;6.50;;;;;;;;;;6300638;22;20015;-59
2022/11/04 03:26:20;;;;;;;18.73;5.88;;;;;;;;;;6300651;22;20020;-64
2022/11/04 03:29:06;;;;;;;18.38;6.18;;;;;;;;;;6299437;22;20042;-65
2022/11/04 03:31:55;;;;;;;11.77;5.82;;;;;;;;;;6301474;22;20054;-64
2022/11/04 03:34:22;;;;;;;16.45;6.97;;;;;;;;;;6301245;22;20094;-64
2022/11/04 03:36:56;;;;;;;15.98;6.68;;;;;;;;;;6298583;22;20431;-65
2022/11/04 03:39:24;;;;;;;14.80;6.45;;;;;;;;;;6301012;22;20129;-64
2022/11/04 03:41:58;;;;;;;19.20;7.20;;;;;;;;;;6301307;22;20023;-64
2022/11/04 03:44:26;;;;;;;14.35;5.85;;;;;;;;;;6300577;22;20015;-53
2022/11/04 03:46:53;;;;;;;15.88;7.22;;;;;;;;;;6299877;22;20023;-50
2022/11/04 03:49:27;;;;;;;15.15;7.03;;;;;;;;;;6300452;22;20476;-60
2022/11/04 03:51:54;;;;;;;26.95;9.13;;;;;;;;;;6301355;22;20019;-60
2022/11/04 03:54:31;;;;;;;23.45;9.20;;;;;;;;;;6302085;22;20098;-60
2022/11/04 03:57:17;;;;;;;20.48;7.85;;;;;;;;;;6299924;22;20030;-60
2022/11/04 04:00:01;;;;;;;14.60;7.68;;;;;;;;;;6300236;22;20027;-60
2022/11/04 04:02:47;;;;;;;19.08;9.30;;;;;;;;;;6299538;22;20033;-60
2022/11/04 04:05:29;;;;;;;20.02;10.15;;;;;;;;;;6299813;22;20069;-49
2022/11/04 04:08:03;;;;;;;21.92;9.25;;;;;;;;;;6300303;22;20611;-60
2022/11/04 04:10:56;;;;;;;20.23;9.25;;;;;;;;;;6300667;22;20023;-60
2022/11/04 04:13:23;;;;;;;27.20;9.75;;;;;;;;;;6299006;22;20486;-60
2022/11/04 04:16:00;;;;;;;20.20;9.27;;;;;;;;;;6301308;22;20054;-60
2022/11/04 04:18:38;;;;;;;16.67;7.90;;;;;;;;;;6302587;22;20023;-60
2022/11/04 04:21:07;;;;;;;22.10;9.32;;;;;;;;;;6299874;22;20551;-60
2022/11/04 04:29:23;;;;;;;24.67;8.90;;;;;;;;;;6300872;22;20019;-59
2022/11/04 04:31:52;;;;;;;16.25;8.50;;;;;;;;;;6302012;22;20415;-59
2022/11/04 04:34:27;;;;;;;21.50;8.23;;;;;;;;;;6302433;22;20094;-59
2022/11/04 04:37:19;;;;;;;26.45;10.00;;;;;;;;;;6301315;22;20106;-60
2022/11/04 04:46:00;;;;;;;17.75;9.30;;;;;;;;;;6302340;22;20536;-64
2022/11/04 04:48:34;;;;;;;25.38;8.77;;;;;;;;;;6301630;22;20027;-65
2022/11/04 04:51:08;;;;;;;19.27;8.70;;;;;;;;;;6302242;22;20105;-64
2022/11/04 04:53:35;;;;;;;;;;;;;;;;;;6303388;22;20093;-65
2022/11/04 04:56:09;;;;;;;21.90;9.00;;;;;;;;;;6301115;22;19919;-64
2022/11/04 04:58:36;;;;;;;20.30;8.50;;;;;;;;;;6303108;22;20015;-64
2022/11/04 05:01:10;;;;;;;24.98;10.05;;;;;;;;;;6302240;22;20026;-59
2022/11/04 05:03:38;;;;;;;;;;;;;;;;;;6301216;22;20019;-61
2022/11/04 05:06:10;;;;;;;15.00;8.25;;;;;;;;;;6304064;22;19914;-59
2022/11/04 05:08:44;;;;;;;16.77;7.10;;;;;;;;;;6303842;22;20030;-59
2022/11/04 05:11:11;;;;;;;23.38;7.68;;;;;;;;;;6302343;22;20118;-60
2022/11/04 05:13:39;;;;;;;21.58;7.47;;;;;;;;;;6302949;22;20478;-59
2022/11/04 05:16:12;;;;;;;12.80;5.57;;;;;;;;;;6302771;22;20098;-60
2022/11/04 05:18:46;;;;;;;13.10;7.32;;;;;;;;;;6300819;22;20105;-60
2022/11/04 05:21:14;;;;;;;12.55;5.25;;;;;;;;;;6300689;22;20106;-60
2022/11/04 05:23:41;;;;;;;15.52;7.15;;;;;;;;;;6302453;22;20019;-59
2022/11/04 05:26:15;;;;;;;17.42;7.63;;;;;;;;;;6300356;22;20023;-60
2022/11/04 05:28:42;;;;;;;18.88;7.70;;;;;;;;;;6275528;22;20043;-59
2022/11/04 05:31:16;;;;;;;16.92;8.10;;;;;;;;;;6301116;22;20468;-60
2022/11/04 05:33:43;;;;;;;13.65;6.35;;;;;;;;;;6301029;22;20019;-59
2022/11/04 05:36:15;;;;;;;21.95;7.35;;;;;;;;;;6303267;22;20042;-60
2022/11/04 05:38:52;;;;;;;21.50;7.80;;;;;;;;;;6302001;22;20102;-49
2022/11/04 05:41:25;;;;;;;19.35;6.63;;;;;;;;;;6301573;22;20019;-64
2022/11/04 05:43:59;;;;;;;19.60;7.40;;;;;;;;;;6298402;22;20507;-64
2022/11/04 05:46:39;;;;;;;24.38;7.13;;;;;;;;;;6299161;22;20475;-64
2022/11/04 05:49:13;;;;;;;17.27;6.90;;;;;;;;;;6299940;22;20019;-64
2022/11/04 05:51:40;;;;;;;16.60;5.78;;;;;;;;;;6299534;22;20022;-64
2022/11/04 05:54:08;;;;;;;14.70;6.50;;;;;;;;;;6299734;22;20015;-65
2022/11/04 05:56:41;;;;;;;17.48;6.30;;;;;;;;;;6300386;22;20534;-65
2022/11/04 05:59:08;;;;;;;13.93;6.25;;;;;;;;;;6302852;22;20489;-61
2022/11/04 06:01:37;;;;;;;21.67;7.05;;;;;;;;;;6301113;22;20031;-60
2022/11/04 06:04:15;;;;;;;17.27;6.65;;;;;;;;;;6302292;22;20471;-59
2022/11/04 06:06:43;;;;;;;16.75;6.90;;;;;;;;;;6303069;22;20111;-60
2022/11/04 06:09:16;;;;;;;11.35;5.78;;;;;;;;;;6302436;22;20019;-60
2022/11/04 06:11:44;;;;;;;15.45;6.13;;;;;;;;;;6302129;22;20025;-59
2022/11/04 06:14:11;;;;;;;15.38;5.68;;;;;;;;;;6302935;22;20050;-60
2022/11/04 06:16:45;;;;;;;10.48;5.40;;;;;;;;;;6301986;22;20118;-64
2022/11/04 06:19:12;;;;;;;13.90;5.72;;;;;;;;;;6302315;22;20030;-59
2022/11/04 06:21:46;;;;;;;14.55;5.00;;;;;;;;;;6301525;22;20792;-60
2022/11/04 06:24:13;;;;;;;20.42;6.47;;;;;;;;;;6300950;22;20020;-60
2022/11/04 06:26:41;;;;;;;21.40;6.93;;;;;;;;;;6301989;22;20019;-60
2022/11/04 06:29:14;;;;;;;15.68;7.05;;;;;;;;;;6300784;22;20094;-59
2022/11/04 06:31:41;;;;;;;16.33;6.13;;;;;;;;;;6300870;22;20101;-61
2022/11/04 06:34:15;;;;;;;16.35;5.57;;;;;;;;;;6301135;22;20015;-60
2022/11/04 06:36:42;;;;;;;18.30;6.32;;;;;;;;;;6302755;22;20030;-59
2022/11/04 06:39:09;;;;;;;13.00;5.00;;;;;;;;;;6301449;22;20424;-60
2022/11/04 06:41:43;;;;;;;10.98;4.35;;;;;;;;;;6300788;22;20019;-48
2022/11/04 06:44:14;;;;;;;14.93;5.15;;;;;;;;;;6301782;22;20042;-53
2022/11/04 06:47:01;;;;;;;17.42;6.50;;;;;;;;;;6301813;22;20029;-49
2022/11/04 06:49:28;;;;;;;14.95;5.88;;;;;;;;;;6300643;22;20054;-50
2022/11/04 06:52:02;;;;;;;18.05;5.80;;;;;;;;;;6301474;22;20094;-49
2022/11/04 06:54:36;;;;;;;13.82;4.85;;;;;;;;;;6300925;22;20050;-59
2022/11/04 06:57:03;;;;;;;17.40;5.10;;;;;;;;;;6301643;22;20019;-59
2022/11/04 06:59:30;;;;;;;17.52;6.13;;;;;;;;;;6302245;22;20021;-51
2022/11/04 07:02:04;;;;;;;19.10;5.63;;;;;;;;;;6300684;22;20098;-51
2022/11/04 07:04:31;;;;;;;19.50;6.20;;;;;;;;;;6300649;22;20069;-53
2022/11/04 07:07:05;;;;;;;9.40;5.10;;;;;;;;;;6299862;22;20023;-51
2022/11/04 07:09:34;;;;;;;16.23;5.28;;;;;;;;;;6301435;22;20021;-53
2022/11/04 07:12:01;;;;;;;16.85;6.18;;;;;;;;;;6300689;22;20527;-51
2022/11/04 07:14:34;;;;;;;17.80;6.35;;;;;;;;;;6300905;22;20026;-63
2022/11/04 07:17:01;;;;;;;13.50;4.47;;;;;;;;;;6302216;22;20360;-59
2022/11/04 07:19:35;;;;;;;12.82;4.90;;;;;;;;;;6300345;22;20037;-60
2022/11/04 07:22:02;;;;;;;13.50;4.82;;;;;;;;;;6299781;22;20023;-59
2022/11/04 07:24:30;;;;;;;12.15;5.05;;;;;;;;;;6300194;22;20102;-60
2022/11/04 07:27:05;;;;;;;16.27;5.18;;;;;;;;;;6301956;22;20030;-60
2022/11/04 07:29:32;;;;;;;17.02;5.82;;;;;;;;;;6301523;22;20042;-60
2022/11/04 07:32:05;;;;;;;8.82;4.15;;;;;;;;;;6300068;22;20023;-60
2022/11/04 07:34:32;;;;;;;9.73;4.35;;;;;;;;;;6299364;22;20578;-58
2022/11/04 07:36:59;;;;;;;14.98;5.18;;;;;;;;;;6299544;22;20106;-59
2022/11/04 07:39:33;;;;;;;11.35;5.93;;;;;;;;;;6297833;22;20122;-58
2022/11/04 07:42:00;;;;;;;12.77;4.75;;;;;;;;;;6298896;22;20284;-59
2022/11/04 07:44:34;;;;;;;8.23;4.05;;;;;;;;;;6274857;22;20090;-60
2022/11/04 07:47:08;;;;;;;15.95;5.30;;;;;;;;;;6299686;22;20380;-59
2022/11/04 07:49:41;;;;;;;15.48;6.32;;;;;;;;;;6301477;22;20029;-59
2022/11/04 07:52:15;;;;;;;14.15;4.65;;;;;;;;;;6298820;22;20034;-60
2022/11/04 07:54:42;;;;;;;16.85;6.95;;;;;;;;;;6299296;22;20102;-59
2022/11/04 07:57:10;;;;;;;11.35;4.72;;;;;;;;;;6300865;22;20122;-50
2022/11/04 07:59:43;;;;;;;13.18;4.97;;;;;;;;;;6299926;22;20098;-50
2022/11/04 08:02:11;;;;;;;17.85;5.80;;;;;;;;;;6300340;22;20025;-50
2022/11/04 08:04:52;;;;;;;14.90;5.40;;;;;;;;;;6298535;22;20054;-52
2022/11/04 08:07:20;;;;;;;13.43;5.97;;;;;;;;;;6301233;22;20025;-49
2022/11/04 08:09:53;;;;;;;16.58;5.72;;;;;;;;;;6302459;22;20496;-48
2022/11/04 08:12:22;;;;;;;21.23;5.35;;;;;;;;;;6301821;22;20352;-64
2022/11/04 08:14:50;;;;;;;10.82;4.57;;;;;;;;;;6300224;22;20019;-60
2022/11/04 08:17:24;;;;;;;11.25;4.72;;;;;;;;;;6301206;22;20054;-60
2022/11/04 08:19:52;;;;;;;24.02;5.80;;;;;;;;;;6302372;22;20023;-60
2022/11/04 08:22:25;;;;;;;19.13;6.53;;;;;;;;;;6302148;22;20027;-60
2022/11/04 08:24:59;;;;;;;12.45;4.82;;;;;;;;;;6302099;22;20094;-60
2022/11/04 08:27:33;;;;;;;15.10;5.47;;;;;;;;;;6303113;22;20403;-61
2022/11/04 08:30:00;;;;;;;11.98;5.45;;;;;;;;;;6299218;22;20098;-63
2022/11/04 08:32:27;;;;;;;13.45;4.78;;;;;;;;;;6298042;22;20200;-49
2022/11/04 08:35:01;;;;;;;15.00;5.82;;;;;;;;;;6301919;22;20568;-48
2022/11/04 08:37:28;;;;;;;19.50;5.32;;;;;;;;;;6275277;22;20023;-49
2022/11/04 08:39:55;;;;;;;20.52;6.32;;;;;;;;;;6300828;22;20015;-50
2022/11/04 08:42:29;;;;;;;19.38;6.35;;;;;;;;;;6301870;22;20505;-48
2022/11/04 08:44:56;;;;;;;19.08;5.35;;;;;;;;;;6301330;22;20608;-50
2022/11/04 08:47:37;;;;;;;10.57;4.82;;;;;;;;;;6301008;22;20342;-50
2022/11/04 08:50:04;;;;;;;9.55;4.20;;;;;;;;;;6302800;22;20047;-63
2022/11/04 08:52:38;;;;;;;16.58;5.60;;;;;;;;;;6303652;22;20046;-63
2022/11/04 08:55:06;;;;;;;17.75;6.32;;;;;;;;;;6301680;22;20098;-63
2022/11/04 08:57:33;;;;;;;16.52;5.80;;;;;;;;;;6301887;22;20019;-62
2022/11/04 09:00:06;;;;;;;14.60;5.75;;;;;;;;;;6303009;22;20050;-63
2022/11/04 09:02:33;;;;;;;14.35;5.75;;;;;;;;;;6301372;22;20415;-63
2022/11/04 09:05:07;;;;;;;18.55;6.65;;;;;;;;;;6302377;22;20387;-64
2022/11/04 09:07:36;;;;;;;19.58;6.10;;;;;;;;;;6301633;22;20027;-63
2022/11/04 09:10:04;;;;;;;16.30;7.22;;;;;;;;;;6301413;22;20571;-48
2022/11/04 09:12:38;;;;;;;13.75;5.95;;;;;;;;;;6302469;22;20016;-59
2022/11/04 09:15:05;;;;;;;18.58;6.03;;;;;;;;;;6301500;22;20682;-59
2022/11/04 09:17:39;;;;;;;17.52;6.30;;;;;;;;;;6302661;22;20114;-59
2022/11/04 09:20:07;;;;;;;15.07;5.53;;;;;;;;;;6299587;22;20050;-60
2022/11/04 09:22:34;;;;;;;;;;;;;;;;;;6299730;22;20023;-60
2022/11/04 09:25:11;;;;;;;16.73;5.72;;;;;;;;;;6277789;22;19919;-59
2022/11/04 09:27:39;;;;;;;17.88;6.32;;;;;;;;;;6301759;22;20029;-60
2022/11/04 09:30:07;;;;;;;10.90;5.20;;;;;;;;;;6302367;22;20019;-64
2022/11/04 09:32:40;;;;;;;10.48;4.90;;;;;;;;;;6301950;22;20065;-53
2022/11/04 09:35:08;;;;;;;12.20;5.95;;;;;;;;;;6300984;22;20023;-50
2022/11/04 09:37:35;;;;;;;16.90;6.10;;;;;;;;;;6299850;22;20532;-49
2022/11/04 09:40:14;;;;;;;19.10;6.35;;;;;;;;;;6301504;22;20026;-49
2022/11/04 09:42:47;;;;;;;18.40;6.15;;;;;;;;;;6302211;22;20110;-55
2022/11/04 09:45:23;;;;;;;12.32;6.03;;;;;;;;;;6301161;22;20098;-48
2022/11/04 09:48:03;;;;;;;16.33;6.13;;;;;;;;;;6301933;22;20027;-64
2022/11/04 09:50:48;;;;;;;20.88;6.28;;;;;;;;;;6301803;22;20026;-60
2022/11/04 09:53:41;;;;;;;19.35;6.25;;;;;;;;;;6298915;22;20025;-60
2022/11/04 09:56:18;;;;;;;12.43;6.03;;;;;;;;;;6301935;22;20026;-60
2022/11/04 09:58:45;;;;;;;16.17;5.70;;;;;;;;;;6301415;22;20023;-60
2022/11/04 10:01:12;;;;;;;20.50;6.30;;;;;;;;;;6299252;22;20428;-60
2022/11/04 10:03:47;;;;;;;12.70;5.47;;;;;;;;;;6300642;22;20108;-60
2022/11/04 10:06:16;;;;;;;14.85;6.70;;;;;;;;;;6301983;22;20094;-52
2022/11/04 10:08:59;;;;;;;16.75;6.68;;;;;;;;;;6300321;22;20054;-61
2022/11/04 17:50:57;;;;;;;21.30;11.82;;;;;;;;;;6268843;22;20375;-60
2022/11/04 17:53:31;;;;;;;22.10;13.17;;;;;;;;;;6268817;22;20078;-60
2022/11/04 17:55:58;;;;;;;20.88;13.13;;;;;;;;;;6263631;22;20106;-60
2022/11/04 17:58:29;;;;;;;24.58;12.85;;;;;;;;;;6266938;22;20402;-61
2022/11/04 18:01:05;;;;;;;25.60;14.18;;;;;;;;;;6265209;22;20477;-61
2022/11/04 18:03:40;;;;;;;26.55;12.65;;;;;;;;;;6267033;22;20027;-63
2022/11/04 18:06:13;;;;;;;20.00;11.10;;;;;;;;;;6265612;22;20019;-59
2022/11/04 18:08:41;;;;;;;21.27;12.90;;;;;;;;;;6265540;22;20027;-60
2022/11/04 18:11:09;;;;;;;23.80;12.48;;;;;;;;;;6263012;22;20020;-60
2022/11/04 18:13:42;;;;;;;20.88;13.05;;;;;;;;;;6263312;22;20027;-61
2022/11/04 18:16:16;;;;;;;23.63;12.88;;;;;;;;;;6266823;22;20098;-60
2022/11/04 18:18:44;;;;;;;22.55;12.73;;;;;;;;;;6264914;22;20024;-60
2022/11/04 18:21:11;;;;;;;25.67;14.10;;;;;;;;;;6266139;22;20019;-50
2022/11/04 18:23:44;;;;;;;21.55;12.32;;;;;;;;;;6265641;22;20414;-60
2022/11/04 18:26:11;;;;;;;21.48;12.00;;;;;;;;;;6266578;22;20421;-63
2022/11/04 18:28:45;;;;;;;25.63;12.20;;;;;;;;;;6266650;22;20520;-62
2022/11/04 18:31:19;;;;;;;19.17;11.82;;;;;;;;;;6265153;22;20106;-63
2022/11/04 18:33:52;;;;;;;22.92;11.52;;;;;;;;;;6266165;22;20058;-63
2022/11/04 18:36:20;;;;;;;19.52;10.93;;;;;;;;;;6266958;22;20555;-63
2022/11/04 18:38:47;;;;;;;25.50;12.70;;;;;;;;;;6264463;22;20368;-63
2022/11/04 18:41:20;;;;;;;21.23;11.43;;;;;;;;;;6266579;22;20022;-63
2022/11/04 18:43:47;;;;;;;21.95;10.55;;;;;;;;;;6265939;22;20126;-47
2022/11/04 18:46:21;;;;;;;19.38;11.00;;;;;;;;;;6264119;22;20469;-53
2022/11/04 18:49:02;;;;;;;19.23;10.38;;;;;;;;;;6276134;22;20023;-53
2022/11/04 18:51:36;;;;;;;21.43;9.77;;;;;;;;;;6295808;22;20364;-49
2022/11/04 18:54:04;;;;;;;19.27;10.73;;;;;;;;;;6290996;22;20029;-47
2022/11/04 18:56:32;;;;;;;21.10;10.07;;;;;;;;;;6295253;22;20029;-51
2022/11/04 18:59:08;;;;;;;20.92;10.90;;;;;;;;;;6295441;22;20023;-52
2022/11/04 19:01:35;;;;;;;17.27;9.35;;;;;;;;;;6296636;22;20098;-59
2022/11/04 19:04:09;;;;;;;21.27;10.82;;;;;;;;;;6296922;22;20811;-47
2022/11/04 19:06:40;;;;;;;16.60;9.65;;;;;;;;;;6295653;22;20019;-48
2022/11/04 19:09:09;;;;;;;19.63;10.20;;;;;;;;;;6296126;22;20046;-48
2022/11/04 19:14:49;;;;;;;17.15;9.50;;;;;;;;;;6294090;22;20019;-52
2022/11/04 19:17:24;;;;;;;19.02;9.18;;;;;;;;;;6296510;22;20092;-50
2022/11/04 19:19:51;;;;;;;19.83;9.85;;;;;;;;;;6295781;22;20097;-50
2022/11/04 19:22:18;;;;;;;21.95;10.48;;;;;;;;;;6296270;22;20415;-50
2022/11/04 19:24:51;;;;;;;18.95;9.88;;;;;;;;;;6294737;22;20026;-49
2022/11/04 19:27:21;;;;;;;19.55;9.82;;;;;;;;;;6297031;22;20023;-52
2022/11/04 19:29:55;;;;;;;16.92;9.93;;;;;;;;;;6295670;22;20023;-51
2022/11/04 19:32:22;;;;;;;17.13;9.73;;;;;;;;;;6295429;22;20027;-52
2022/11/04 19:34:50;;;;;;;20.10;8.77;;;;;;;;;;6295687;22;20098;-53
2022/11/04 19:37:23;;;;;;;17.98;9.10;;;;;;;;;;6295105;22;20098;-59
2022/11/04 19:39:50;;;;;;;16.58;7.93;;;;;;;;;;6295703;22;20027;-63
2022/11/04 19:45:10;;;;;;;17.73;8.38;;;;;;;;;;6294718;22;20794;-59
2022/11/04 19:47:43;;;;;;;17.98;8.70;;;;;;;;;;6295839;22;20023;-60
2022/11/04 19:50:17;;;;;;;15.70;8.43;;;;;;;;;;6295483;22;20088;-59
2022/11/04 19:52:51;;;;;;;13.15;7.50;;;;;;;;;;6295969;22;20020;-59
2022/11/04 19:55:19;;;;;;;11.77;7.18;;;;;;;;;;6294709;22;20368;-59
2022/11/04 19:57:46;;;;;;;16.25;7.82;;;;;;;;;;6295080;22;20019;-60
2022/11/04 20:00:19;;;;;;;15.63;8.25;;;;;;;;;;6298506;22;20020;-48
2022/11/04 20:02:46;;;;;;;19.00;8.35;;;;;;;;;;6297999;22;20103;-52
2022/11/04 20:05:20;;;;;;;19.70;8.48;;;;;;;;;;6296600;22;20607;-47
2022/11/04 20:07:53;;;;;;;14.45;8.02;;;;;;;;;;6295408;22;20475;-47
2022/11/04 20:10:23;;;;;;;15.45;7.15;;;;;;;;;;6297312;22;20356;-50
2022/11/04 20:15:42;;;;;;;16.80;7.72;;;;;;;;;;6297715;22;20220;-59
2022/11/04 20:18:16;;;;;;;16.73;7.15;;;;;;;;;;6296550;22;20204;-60
2022/11/04 20:20:43;;;;;;;13.48;7.32;;;;;;;;;;6296428;22;20046;-61
2022/11/04 20:23:17;;;;;;;14.50;7.57;;;;;;;;;;6296752;22;20552;-60
2022/11/04 20:25:45;;;;;;;14.75;6.85;;;;;;;;;;6297540;22;20094;-60
2022/11/04 20:28:12;;;;;;;14.57;6.80;;;;;;;;;;6296295;22;20027;-60
2022/11/04 20:30:45;;;;;;;14.13;6.68;;;;;;;;;;6296454;22;20098;-60
2022/11/04 20:33:13;;;;;;;15.65;7.30;;;;;;;;;;6296305;22;20029;-60
2022/11/04 20:35:46;;;;;;;21.08;7.35;;;;;;;;;;6296406;22;20102;-63
2022/11/04 20:38:14;;;;;;;14.25;6.20;;;;;;;;;;6297155;22;20426;-61
2022/11/04 20:40:41;;;;;;;11.50;6.47;;;;;;;;;;6297339;22;20041;-64
2022/11/04 20:43:15;;;;;;;17.92;8.02;;;;;;;;;;6294461;22;20523;-62
2022/11/04 20:45:42;;;;;;;18.35;7.57;;;;;;;;;;6297319;22;20122;-64
2022/11/04 20:48:39;;;;;;;14.45;6.68;;;;;;;;;;6296980;22;20019;-63
2022/11/04 20:51:18;;;;;;;17.05;6.95;;;;;;;;;;6296905;22;20130;-63
2022/11/04 20:53:54;;;;;;;10.35;5.65;;;;;;;;;;6297373;22;20029;-49
2022/11/04 20:56:23;;;;;;;19.08;7.22;;;;;;;;;;6294966;22;20030;-53
2022/11/04 20:58:50;;;;;;;15.82;6.13;;;;;;;;;;6297096;22;20094;-60
2022/11/04 21:01:30;;;;;;;13.65;5.85;;;;;;;;;;6295809;22;20046;-60
2022/11/04 21:04:07;;;;;;;10.02;5.05;;;;;;;;;;6295820;22;20023;-60
2022/11/04 21:06:42;;;;;;;14.43;5.43;;;;;;;;;;6293923;22;20053;-60
2022/11/04 21:09:09;;;;;;;;;;;;;;;;;;6293740;22;20015;-60
2022/11/04 21:11:38;;;;;;;16.20;4.03;;;;;;;;;;6296357;22;19946;-60
2022/11/04 21:14:12;;;;;;;15.20;4.50;;;;;;;;;;6294458;22;20023;-60
2022/11/04 21:16:40;;;;;;;13.90;4.13;;;;;;;;;;6298380;22;20356;-60
2022/11/04 21:19:14;;;;;;;19.85;5.32;;;;;;;;;;6272301;22;20105;-60
2022/11/04 21:21:42;;;;;;;16.40;4.63;;;;;;;;;;6296903;22;20023;-60
2022/11/04 21:24:17;;;;;;;24.30;4.82;;;;;;;;;;6298912;22;20065;-60
2022/11/04 21:26:44;;;;;;;18.20;4.18;;;;;;;;;;6297548;22;20023;-61
2022/11/04 21:29:11;;;;;;;;;;;;;;;;;;6298410;22;20106;-61
2022/11/04 21:31:46;;;;;;;11.68;3.30;;;;;;;;;;6297015;22;19925;-61
2022/11/04 21:34:13;;;;;;;7.90;3.47;;;;;;;;;;6299208;22;20023;-60
2022/11/04 21:36:49;;;;;;;8.88;3.47;;;;;;;;;;6298064;22;20030;-60
2022/11/04 21:39:16;;;;;;;13.77;3.15;;;;;;;;;;6300476;22;20098;-60
2022/11/04 21:41:43;;;;;;;9.82;3.58;;;;;;;;;;6296869;22;20477;-60
2022/11/04 21:44:17;;;;;;;13.93;3.78;;;;;;;;;;6296199;22;20457;-60
2022/11/04 21:46:47;;;;;;;8.95;3.15;;;;;;;;;;6298112;22;20094;-60
2022/11/04 21:49:33;;;;;;;14.02;3.30;;;;;;;;;;6298827;22;20023;-60
2022/11/04 21:52:07;;;;;;;8.88;3.10;;;;;;;;;;6298202;22;20540;-63
2022/11/04 21:54:41;;;;;;;13.70;2.70;;;;;;;;;;6297898;22;20030;-54
2022/11/04 21:57:09;;;;;;;12.00;2.67;;;;;;;;;;6296897;22;20543;-50
2022/11/04 21:59:36;;;;;;;8.15;2.25;;;;;;;;;;6298841;22;20019;-49
2022/11/04 22:02:10;;;;;;;11.40;1.98;;;;;;;;;;6298445;22;20027;-52
2022/11/04 22:04:37;;;;;;;;;;;;;;;;;;6298251;22;20034;-51
2022/11/04 22:07:10;;;;;;;9.20;1.55;;;;;;;;;;6298304;22;19929;-52
2022/11/04 22:09:38;;;;;;;7.50;1.75;;;;;;;;;;6298248;22;20098;-52
2022/11/04 22:12:11;;;;;;;10.35;2.00;;;;;;;;;;6298420;22;20074;-53
2022/11/04 22:14:38;;;;;;;4.60;1.60;;;;;;;;;;6274466;22;20020;-63
2022/11/04 22:17:06;;;;;;;10.00;2.30;;;;;;;;;;6301248;22;20027;-63
2022/11/04 22:19:39;;;;;;;10.73;1.83;;;;;;;;;;6300019;22;20065;-63
2022/11/04 22:22:13;;;;;;;13.18;2.08;;;;;;;;;;6301522;22;20098;-63
2022/11/04 22:24:40;;;;;;;6.25;1.65;;;;;;;;;;6300584;22;20030;-63
2022/11/04 22:27:14;;;;;;;10.50;2.60;;;;;;;;;;6300767;22;20030;-63
2022/11/04 22:29:41;;;;;;;11.15;2.10;;;;;;;;;;6300248;22;21128;-61
2022/11/04 22:32:08;;;;;;;9.85;2.10;;;;;;;;;;6302147;22;20034;-60
2022/11/04 22:34:42;;;;;;;10.00;1.90;;;;;;;;;;6300691;22;20026;-60
2022/11/04 22:37:09;;;;;;;11.35;2.67;;;;;;;;;;6302560;22;20023;-59
2022/11/04 22:39:44;;;;;;;12.95;2.65;;;;;;;;;;6302944;22;20029;-59
2022/11/04 22:42:11;;;;;;;9.00;2.45;;;;;;;;;;6300781;22;20114;-60
2022/11/04 22:44:38;;;;;;;9.27;1.70;;;;;;;;;;6300709;22;20476;-60
2022/11/04 22:47:11;;;;;;;6.75;1.85;;;;;;;;;;6300648;22;20023;-63
2022/11/04 22:49:45;;;;;;;14.75;2.58;;;;;;;;;;6300326;22;20020;-62
2022/11/04 22:52:19;;;;;;;12.23;1.95;;;;;;;;;;6301746;22;20433;-49
2022/11/04 22:54:46;;;;;;;11.35;2.42;;;;;;;;;;6300782;22;20110;-50
2022/11/04 22:57:13;;;;;;;15.60;2.40;;;;;;;;;;6300542;22;20091;-52
2022/11/04 22:59:46;;;;;;;10.15;1.92;;;;;;;;;;6301629;22;20025;-48
2022/11/04 23:02:13;;;;;;;6.55;1.58;;;;;;;;;;6299377;22;20050;-48
2022/11/04 23:04:41;;;;;;;14.40;2.30;;;;;;;;;;6301414;22;20082;-48
2022/11/04 23:07:14;;;;;;;10.65;2.20;;;;;;;;;;6302791;22;20056;-51
2022/11/04 23:26:39;;;;;;;6.80;2.17;;;;;;;;;;6300508;22;20015;-60
2022/11/04 23:31:59;;;;;;;9.77;1.70;;;;;;;;;;6300711;22;20090;-59
2022/11/04 23:37:19;;;;;;;10.90;2.22;;;;;;;;;;6302101;22;20019;-60
2022/11/04 23:39:53;;;;;;;12.00;2.17;;;;;;;;;;6301343;22;20045;-59